createdAt,value
2022-12-15T00:02:35.535Z,30.20
2022-12-15T00:05:21.383Z,34.23
2022-12-15T00:08:06.768Z,33.50
2022-12-15T00:10:52.054Z,32.40
2022-12-15T00:13:37.512Z,30.07
2022-12-15T00:16:23.349Z,34.47
2022-12-15T00:19:08.586Z,31.33
2022-12-15T00:21:53.807Z,42.50
2022-12-15T00:24:39.395Z,29.17
2022-12-15T00:27:24.939Z,31.03
2022-12-15T00:30:10.372Z,29.90
2022-12-15T00:32:55.939Z,31.47
2022-12-15T00:35:41.260Z,31.07
2022-12-15T00:38:28.317Z,30.27
2022-12-15T00:41:01.074Z,29.57
2022-12-15T00:43:32.396Z,34.47
2022-12-15T00:46:18.296Z,33.10
2022-12-15T00:48:45.548Z,30.63
2022-12-15T00:51:13.593Z,29.20
2022-12-15T00:53:59.633Z,32.77
2022-12-15T00:56:45.140Z,31.53
2022-12-15T00:59:32.203Z,32.47
2022-12-15T01:02:17.771Z,29.23
2022-12-15T01:05:03.181Z,30.50
2022-12-15T01:07:49.977Z,30.53
2022-12-15T01:10:36.187Z,30.30
2022-12-15T01:13:22.048Z,30.90
2022-12-15T01:16:07.626Z,26.93
2022-12-15T01:18:53.466Z,33.57
2022-12-15T01:21:24.337Z,33.00
2022-12-15T01:23:51.954Z,25.90
2022-12-15T01:26:18.853Z,26.67
2022-12-15T01:28:45.469Z,26.93
2022-12-15T01:31:12.524Z,31.23
2022-12-15T01:33:39.977Z,29.07
2022-12-15T01:36:07.097Z,31.80
2022-12-15T01:38:33.709Z,30.00
2022-12-15T01:41:04.701Z,28.80
2022-12-15T01:43:34.949Z,28.80
2022-12-15T01:46:06.387Z,23.67
2022-12-15T01:48:46.805Z,27.07
2022-12-15T01:51:16.093Z,28.33
2022-12-15T01:54:05.821Z,27.03
2022-12-15T01:56:37.907Z,28.50
2022-12-15T01:59:08.063Z,27.27
2022-12-15T02:01:35.086Z,32.70
2022-12-15T02:04:02.615Z,26.60
2022-12-15T02:06:29.942Z,30.43
2022-12-15T02:08:59.827Z,35.90
2022-12-15T02:11:57.538Z,26.90
2022-12-15T02:14:47.519Z,31.60
2022-12-15T02:17:38.177Z,31.40
2022-12-15T02:20:19.587Z,32.03
2022-12-15T02:22:46.206Z,30.07
2022-12-15T02:25:34.603Z,29.17
2022-12-15T02:28:06.396Z,29.57
2022-12-15T02:31:11.812Z,27.07
2022-12-15T02:34:09.771Z,29.80
2022-12-15T02:36:43.858Z,33.23
2022-12-15T02:39:13.001Z,29.83
2022-12-15T02:41:42.773Z,36.70
2022-12-15T02:44:21.346Z,29.33
2022-12-15T02:46:59.291Z,27.43
2022-12-15T02:49:49.868Z,26.33
2022-12-15T02:52:52.775Z,27.13
2022-12-15T02:55:37.802Z,28.90
2022-12-15T02:58:25.003Z,27.80
2022-12-15T03:00:59.264Z,28.30
2022-12-15T03:03:28.282Z,31.40
2022-12-15T03:05:55.470Z,28.37
2022-12-15T03:08:22.442Z,33.83
2022-12-15T03:10:52.244Z,31.23
2022-12-15T03:13:18.950Z,26.80
2022-12-15T03:15:45.612Z,30.87
2022-12-15T03:18:12.436Z,27.27
2022-12-15T03:20:39.107Z,26.97
2022-12-15T03:23:05.841Z,28.57
2022-12-15T03:25:32.556Z,31.20
2022-12-15T03:27:59.270Z,27.60
2022-12-15T03:30:26.174Z,29.17
2022-12-15T03:32:52.805Z,27.77
2022-12-15T03:35:19.515Z,36.00
2022-12-15T03:37:46.437Z,25.90
2022-12-15T03:40:16.489Z,23.87
2022-12-15T03:42:48.439Z,26.30
2022-12-15T03:45:19.710Z,27.43
2022-12-15T03:47:47.380Z,26.53
2022-12-15T03:50:16.459Z,22.67
2022-12-15T03:52:43.557Z,23.67
2022-12-15T03:55:11.629Z,26.37
2022-12-15T03:57:38.278Z,24.70
2022-12-15T04:00:07.058Z,24.97
2022-12-15T04:02:33.867Z,24.83
2022-12-15T04:05:00.713Z,25.20
2022-12-15T04:07:27.375Z,26.27
2022-12-15T04:09:54.062Z,26.70
2022-12-15T04:12:20.806Z,26.20
2022-12-15T04:14:47.513Z,22.13
2022-12-15T04:17:16.448Z,26.00
2022-12-15T04:20:02.078Z,36.03
2022-12-15T04:22:28.740Z,23.40
2022-12-15T04:25:14.292Z,21.87
2022-12-15T04:28:01.722Z,23.77
2022-12-15T04:30:48.599Z,21.60
2022-12-15T04:33:34.396Z,22.87
2022-12-15T04:36:20.486Z,24.73
2022-12-15T04:39:05.979Z,24.80
2022-12-15T04:41:51.601Z,24.50
2022-12-15T04:44:37.530Z,25.47
2022-12-15T04:47:23.282Z,22.97
2022-12-15T04:50:08.438Z,25.70
2022-12-15T04:52:54.072Z,27.47
2022-12-15T04:55:39.662Z,24.97
2022-12-15T04:58:26.714Z,22.87
2022-12-15T05:01:12.416Z,25.13
2022-12-15T05:03:58.068Z,21.80
2022-12-15T05:06:43.264Z,24.07
2022-12-15T05:09:28.780Z,23.30
2022-12-15T05:12:14.170Z,23.57
2022-12-15T05:14:59.786Z,19.93
2022-12-15T05:17:45.414Z,24.60
2022-12-15T05:20:30.674Z,28.70
2022-12-15T05:23:16.677Z,24.07
2022-12-15T05:26:01.925Z,24.60
2022-12-15T05:28:47.796Z,25.53
2022-12-15T05:31:33.829Z,24.43
2022-12-15T05:34:05.089Z,25.80
2022-12-15T05:36:32.879Z,29.17
2022-12-15T05:38:59.609Z,28.57
2022-12-15T05:41:26.256Z,25.50
2022-12-15T05:43:52.954Z,24.60
2022-12-15T05:46:20.089Z,22.00
2022-12-15T05:48:47.132Z,25.20
2022-12-15T05:51:14.298Z,25.20
2022-12-15T05:53:41.835Z,23.13
2022-12-15T05:56:11.409Z,24.50
2022-12-15T05:58:44.788Z,25.83
2022-12-15T06:01:14.588Z,23.03
2022-12-15T06:03:42.158Z,24.87
2022-12-15T06:06:10.628Z,23.70
2022-12-15T06:08:39.369Z,25.43
2022-12-15T06:11:06.537Z,26.27
2022-12-15T06:13:37.015Z,23.30
2022-12-15T06:16:06.741Z,25.80
2022-12-15T06:18:36.730Z,23.30
2022-12-15T06:21:06.596Z,31.90
2022-12-15T06:23:34.971Z,31.93
2022-12-15T06:26:14.367Z,25.60
2022-12-15T06:28:41.616Z,27.27
2022-12-15T06:31:10.043Z,20.20
2022-12-15T06:33:37.097Z,23.00
2022-12-15T06:36:06.216Z,20.03
2022-12-15T06:38:33.934Z,26.93
2022-12-15T06:41:02.262Z,34.40
2022-12-15T06:43:30.129Z,42.80
2022-12-15T06:45:57.605Z,27.80
2022-12-15T06:48:25.110Z,21.67
2022-12-15T06:50:52.552Z,30.70
2022-12-15T06:53:21.378Z,28.43
2022-12-15T06:55:48.930Z,28.57
2022-12-15T06:58:15.957Z,27.63
2022-12-15T07:00:44.324Z,24.50
2022-12-15T07:03:16.159Z,30.60
2022-12-15T07:05:44.092Z,27.10
2022-12-15T07:08:12.286Z,27.67
2022-12-15T07:10:44.211Z,26.93
2022-12-15T07:13:14.087Z,28.20
2022-12-15T07:15:41.729Z,27.00
2022-12-15T07:18:10.451Z,24.97
2022-12-15T07:20:37.100Z,31.43
2022-12-15T07:23:07.970Z,23.23
2022-12-15T07:25:36.913Z,24.63
2022-12-15T07:28:04.078Z,24.37
2022-12-15T07:30:36.746Z,28.97
2022-12-15T07:33:05.838Z,21.70
2022-12-15T07:35:32.850Z,23.67
2022-12-15T07:38:00.470Z,30.17
2022-12-15T07:40:27.281Z,27.63
2022-12-15T07:42:54.021Z,26.73
2022-12-15T07:45:21.851Z,24.53
2022-12-15T07:47:50.238Z,25.37
2022-12-15T07:50:18.727Z,24.87
2022-12-15T07:52:50.435Z,28.43
2022-12-15T07:55:17.141Z,27.20
2022-12-15T07:57:43.798Z,28.43
2022-12-15T08:00:10.884Z,25.70
2022-12-15T08:02:37.785Z,23.47
2022-12-15T08:05:04.876Z,23.90
2022-12-15T08:07:31.515Z,21.10
2022-12-15T08:09:58.126Z,25.93
2022-12-15T08:12:24.806Z,22.30
2022-12-15T08:14:51.543Z,22.73
2022-12-15T08:17:18.206Z,28.83
2022-12-15T08:19:44.924Z,23.63
2022-12-15T08:22:15.543Z,25.60
2022-12-15T08:24:42.248Z,33.53
2022-12-15T08:27:08.927Z,29.80
2022-12-15T08:29:52.175Z,26.50
2022-12-15T08:32:19.332Z,30.30
2022-12-15T08:34:47.729Z,24.80
2022-12-15T08:37:14.391Z,24.17
2022-12-15T08:39:41.036Z,29.50
2022-12-15T08:42:07.688Z,28.70
2022-12-15T08:44:34.711Z,27.40
2022-12-15T08:47:01.462Z,28.00
2022-12-15T08:49:28.113Z,31.07
2022-12-15T08:51:54.815Z,36.20
2022-12-15T08:54:21.621Z,33.13
2022-12-15T08:56:48.503Z,32.83
2022-12-15T08:59:15.919Z,39.87
2022-12-15T09:01:43.455Z,33.40
2022-12-15T09:04:10.501Z,34.40
2022-12-15T09:06:37.294Z,33.43
2022-12-15T09:09:07.421Z,35.20
2022-12-15T09:11:34.918Z,30.43
2022-12-15T09:14:01.879Z,34.30
2022-12-15T09:16:28.778Z,33.27
2022-12-15T09:18:58.074Z,42.43
2022-12-15T09:21:27.253Z,40.77
2022-12-15T09:23:56.280Z,48.70
2022-12-15T09:26:23.749Z,44.50
2022-12-15T09:28:51.384Z,37.67
2022-12-15T09:31:22.017Z,36.83
2022-12-15T09:33:51.044Z,29.13
2022-12-15T09:36:17.827Z,30.73
2022-12-15T09:38:44.810Z,33.40
2022-12-15T09:41:14.963Z,32.93
2022-12-15T09:43:54.363Z,38.83
2022-12-15T09:46:28.291Z,37.17
2022-12-15T09:48:58.165Z,33.73
2022-12-15T09:51:34.197Z,36.80
2022-12-15T09:54:01.499Z,33.33
2022-12-15T09:56:42.489Z,35.40
2022-12-15T09:59:41.675Z,39.97
2022-12-15T10:02:46.163Z,51.30
2022-12-15T10:05:38.161Z,50.90
2022-12-15T10:08:14.106Z,45.93
2022-12-15T10:10:56.189Z,66.47
2022-12-15T10:13:37.673Z,70.07
2022-12-15T10:16:13.924Z,72.27
2022-12-15T10:19:08.717Z,78.73
2022-12-15T10:21:36.434Z,54.60
2022-12-15T10:24:37.464Z,58.33
2022-12-15T10:27:27.200Z,55.23
2022-12-15T10:30:07.984Z,55.70
2022-12-15T10:33:11.644Z,48.97
2022-12-15T10:35:39.916Z,55.70
2022-12-15T10:38:23.452Z,50.77
2022-12-15T10:40:59.757Z,60.00
2022-12-15T10:43:32.816Z,51.23
2022-12-15T10:46:19.905Z,50.33
2022-12-15T10:48:49.861Z,48.43
2022-12-15T10:51:27.584Z,47.63
2022-12-15T10:54:04.532Z,42.80
2022-12-15T10:56:34.244Z,51.40
2022-12-15T10:59:22.209Z,41.53
2022-12-15T11:01:49.137Z,40.17
2022-12-15T11:04:32.447Z,33.63
2022-12-15T11:07:01.884Z,59.67
2022-12-15T11:09:37.999Z,34.33
2022-12-15T11:12:41.436Z,34.13
2022-12-15T11:15:38.205Z,34.73
2022-12-15T11:18:08.663Z,40.83
2022-12-15T11:20:40.152Z,37.77
2022-12-15T11:23:17.767Z,28.57
2022-12-15T11:25:51.480Z,43.23
2022-12-15T11:28:26.676Z,33.77
2022-12-15T11:31:26.434Z,29.63
2022-12-15T11:33:54.889Z,38.00
2022-12-15T11:36:46.709Z,36.00
2022-12-15T11:39:45.285Z,33.53
2022-12-15T11:42:54.395Z,31.03
2022-12-15T11:45:50.277Z,30.10
2022-12-15T11:48:23.516Z,37.37
2022-12-15T11:51:17.606Z,30.40
2022-12-15T11:54:09.015Z,32.97
2022-12-15T11:56:45.497Z,27.67
2022-12-15T11:59:22.299Z,26.53
2022-12-15T12:02:13.806Z,32.43
2022-12-15T12:05:07.908Z,31.27
2022-12-15T12:08:05.609Z,27.30
2022-12-15T12:10:58.916Z,29.40
2022-12-15T12:13:52.039Z,27.50
2022-12-15T12:16:50.828Z,26.63
2022-12-15T12:19:27.457Z,35.40
2022-12-15T12:22:02.496Z,30.00
2022-12-15T12:24:48.909Z,26.00
2022-12-15T12:27:39.500Z,30.10
2022-12-15T12:30:13.148Z,35.90
2022-12-15T12:32:54.443Z,27.27
2022-12-15T12:35:55.275Z,22.33
2022-12-15T12:38:29.897Z,24.20
2022-12-15T12:41:11.562Z,34.10
2022-12-15T12:43:43.140Z,36.37
2022-12-15T12:46:33.253Z,31.53
2022-12-15T12:49:22.894Z,31.07
2022-12-15T12:51:55.211Z,30.30
2022-12-15T12:54:37.182Z,31.27
2022-12-15T12:57:13.098Z,33.17
2022-12-15T12:59:48.934Z,30.30
2022-12-15T13:02:21.787Z,32.50
2022-12-15T13:05:06.125Z,33.70
2022-12-15T13:07:35.293Z,34.37
2022-12-15T13:10:25.070Z,39.40
2022-12-15T13:12:54.343Z,30.27
2022-12-15T13:15:27.320Z,36.77
2022-12-15T13:18:06.509Z,37.37
2022-12-15T13:20:36.722Z,30.70
2022-12-15T13:23:21.462Z,36.00
2022-12-15T13:25:57.019Z,43.37
2022-12-15T13:28:39.392Z,38.90
2022-12-15T13:31:21.596Z,40.10
2022-12-15T13:33:51.535Z,36.43
2022-12-15T13:36:36.987Z,36.33
2022-12-15T13:39:04.925Z,37.47
2022-12-15T13:41:33.198Z,35.47
2022-12-15T13:44:01.135Z,43.40
2022-12-15T13:46:31.825Z,35.43
2022-12-15T13:49:35.932Z,38.73
2022-12-15T13:52:12.210Z,32.70
2022-12-15T13:54:49.209Z,37.33
2022-12-15T13:57:20.002Z,35.60
2022-12-15T14:00:01.635Z,38.60
2022-12-15T14:02:31.517Z,39.20
2022-12-15T14:05:21.129Z,40.77
2022-12-15T14:07:54.345Z,38.40
2022-12-15T14:10:34.893Z,35.17
2022-12-15T14:13:15.847Z,38.73
2022-12-15T14:15:46.896Z,36.73
2022-12-15T14:18:25.436Z,36.77
2022-12-15T14:20:53.018Z,29.90
2022-12-15T14:23:25.312Z,34.10
2022-12-15T14:26:03.598Z,37.60
2022-12-15T14:28:33.493Z,40.53
2022-12-15T14:31:07.131Z,34.27
2022-12-15T14:33:37.247Z,32.83
2022-12-15T14:36:10.587Z,36.47
2022-12-15T14:38:45.075Z,37.27
2022-12-15T14:41:21.531Z,33.80
2022-12-15T14:44:31.560Z,36.83
2022-12-15T14:46:36.747Z,35.03
2022-12-15T14:49:08.948Z,35.47
2022-12-15T14:51:46.212Z,35.77
2022-12-15T14:54:38.436Z,35.20
2022-12-15T14:57:20.255Z,33.10
2022-12-15T14:59:54.504Z,37.63
2022-12-15T15:02:24.964Z,33.77
2022-12-15T15:05:04.633Z,34.87
2022-12-15T15:07:37.515Z,32.23
2022-12-15T15:10:22.305Z,35.17
2022-12-15T15:12:49.513Z,33.53
2022-12-15T15:15:21.483Z,35.70
2022-12-15T15:17:48.107Z,31.37
2022-12-15T15:20:30.191Z,30.67
2022-12-15T15:23:10.728Z,38.23
2022-12-15T15:25:40.686Z,35.63
2022-12-15T15:28:23.084Z,37.50
2022-12-15T15:30:59.288Z,39.43
2022-12-15T15:33:26.918Z,36.57
2022-12-15T15:35:59.303Z,35.47
2022-12-15T15:38:32.206Z,34.90
2022-12-15T15:41:20.992Z,36.80
2022-12-15T15:43:48.474Z,40.80
2022-12-15T15:46:18.394Z,37.37
2022-12-15T15:48:47.675Z,36.87
2022-12-15T15:51:14.603Z,39.23
2022-12-15T15:53:41.377Z,37.03
2022-12-15T15:56:12.022Z,38.77
2022-12-15T15:58:38.843Z,35.60
2022-12-15T16:01:11.131Z,33.80
2022-12-15T16:03:40.187Z,39.00
2022-12-15T16:06:19.755Z,39.63
2022-12-15T16:08:49.880Z,51.00
2022-12-15T16:11:16.783Z,57.73
2022-12-15T16:13:44.429Z,53.70
2022-12-15T16:16:20.590Z,41.67
2022-12-15T16:18:47.669Z,37.03
2022-12-15T16:21:15.846Z,49.07
2022-12-15T16:23:44.670Z,47.43
2022-12-15T16:26:16.406Z,39.57
2022-12-15T16:28:43.337Z,45.57
2022-12-15T16:31:15.970Z,39.23
2022-12-15T16:33:42.639Z,38.60
2022-12-15T16:36:13.148Z,39.27
2022-12-15T16:38:40.764Z,40.20
2022-12-15T16:41:12.260Z,38.80
2022-12-15T16:43:42.950Z,41.27
2022-12-15T16:46:15.398Z,35.70
2022-12-15T16:48:43.402Z,36.70
2022-12-15T16:51:26.427Z,40.77
2022-12-15T16:53:53.346Z,39.03
2022-12-15T16:56:20.279Z,47.53
2022-12-15T16:58:49.010Z,40.90
2022-12-15T17:01:19.745Z,34.47
2022-12-15T17:03:47.167Z,37.93
2022-12-15T17:06:17.635Z,37.60
2022-12-15T17:08:51.406Z,42.07
2022-12-15T17:11:26.874Z,39.87
2022-12-15T17:13:56.674Z,37.73
2022-12-15T17:16:25.202Z,35.47
2022-12-15T17:18:52.336Z,40.57
2022-12-15T17:21:41.302Z,42.00
2022-12-15T17:24:13.879Z,42.10
2022-12-15T17:26:42.106Z,41.13
2022-12-15T17:29:17.439Z,32.93
2022-12-15T17:31:44.203Z,36.90
2022-12-15T17:34:33.769Z,39.03
2022-12-15T17:37:04.299Z,38.70
2022-12-15T17:39:32.701Z,34.40
2022-12-15T17:42:01.396Z,36.43
2022-12-15T17:44:34.765Z,41.53
2022-12-15T17:47:02.512Z,37.80
2022-12-15T17:49:35.005Z,38.43
2022-12-15T17:52:07.449Z,34.77
2022-12-15T17:54:34.134Z,39.53
2022-12-15T17:57:00.918Z,36.20
2022-12-15T17:59:27.684Z,40.20
2022-12-15T18:01:57.020Z,41.70
2022-12-15T18:04:24.146Z,46.13
2022-12-15T18:06:51.552Z,52.60
2022-12-15T18:09:22.475Z,61.50
2022-12-15T18:11:49.368Z,50.13
2022-12-15T18:14:19.268Z,43.20
2022-12-15T18:16:46.567Z,41.20
2022-12-15T18:19:13.801Z,45.83
2022-12-15T18:21:41.052Z,44.70
2022-12-15T18:24:21.423Z,40.43
2022-12-15T18:26:48.817Z,43.10
2022-12-15T18:29:20.170Z,43.13
2022-12-15T18:31:48.313Z,46.17
2022-12-15T18:34:21.019Z,43.33
2022-12-15T18:36:48.005Z,45.80
2022-12-15T18:39:20.140Z,44.43
2022-12-15T18:41:48.152Z,47.80
2022-12-15T18:44:24.608Z,43.53
2022-12-15T18:46:51.450Z,41.50
2022-12-15T18:49:19.346Z,43.73
2022-12-15T18:51:47.170Z,42.33
2022-12-15T18:54:19.875Z,43.83
2022-12-15T18:56:46.618Z,44.17
2022-12-15T18:59:18.110Z,42.57
2022-12-15T19:01:47.781Z,42.90
2022-12-15T19:04:15.469Z,42.77
2022-12-15T19:06:42.951Z,40.23
2022-12-15T19:09:12.594Z,39.60
2022-12-15T19:11:39.451Z,38.00
2022-12-15T19:14:32.964Z,40.00
2022-12-15T19:17:18.363Z,39.33
2022-12-15T19:20:08.463Z,45.13
2022-12-15T19:22:35.952Z,40.00
2022-12-15T19:25:05.915Z,36.73
2022-12-15T19:27:32.565Z,46.70
2022-12-15T19:29:59.532Z,40.30
2022-12-15T19:32:26.847Z,41.40
2022-12-15T19:34:54.525Z,43.90
2022-12-15T19:37:30.558Z,49.23
2022-12-15T19:40:01.708Z,53.20
2022-12-15T19:42:37.050Z,66.20
2022-12-15T19:45:15.841Z,54.37
2022-12-15T19:47:42.506Z,49.27
2022-12-15T19:50:14.427Z,45.73
2022-12-15T19:52:42.438Z,45.27
2022-12-15T19:55:15.202Z,42.30
2022-12-15T19:57:41.949Z,35.87
2022-12-15T20:00:15.889Z,33.57
2022-12-15T20:02:42.825Z,29.20
2022-12-15T20:05:09.700Z,26.23
2022-12-15T20:07:36.758Z,28.57
2022-12-15T20:10:05.310Z,30.23
2022-12-15T20:12:32.062Z,31.87
2022-12-15T20:14:58.815Z,36.43
2022-12-15T20:17:25.529Z,36.17
2022-12-15T20:19:52.462Z,38.93
2022-12-15T20:22:22.068Z,35.93
2022-12-15T20:24:48.888Z,32.80
2022-12-15T20:27:18.241Z,34.07
2022-12-15T20:29:45.385Z,24.53
2022-12-15T20:32:17.472Z,27.53
2022-12-15T20:34:44.604Z,27.77
2022-12-15T20:37:29.328Z,22.33
2022-12-15T20:39:57.797Z,21.33
2022-12-15T20:42:25.446Z,25.23
2022-12-15T20:44:52.115Z,22.87
2022-12-15T20:47:26.503Z,22.40
2022-12-15T20:49:54.727Z,23.50
2022-12-15T20:52:24.276Z,19.80
2022-12-15T20:54:52.640Z,19.27
2022-12-15T20:57:19.482Z,24.00
2022-12-15T20:59:46.278Z,19.60
2022-12-15T21:02:21.750Z,24.13
2022-12-15T21:04:50.987Z,22.43
2022-12-15T21:07:17.709Z,24.03
2022-12-15T21:09:44.526Z,23.20
2022-12-15T21:12:17.411Z,24.70
2022-12-15T21:14:44.225Z,24.87
2022-12-15T21:17:19.548Z,23.60
2022-12-15T21:19:46.735Z,22.63
2022-12-15T21:22:26.740Z,22.20
2022-12-15T21:24:55.843Z,22.30
2022-12-15T21:27:22.825Z,25.33
2022-12-15T21:29:52.570Z,20.53
2022-12-15T21:32:20.276Z,25.93
2022-12-15T21:34:46.985Z,23.87
2022-12-15T21:37:31.878Z,21.80
2022-12-15T21:39:59.456Z,19.53
2022-12-15T21:42:26.465Z,22.67
2022-12-15T21:44:53.236Z,20.03
2022-12-15T21:47:52.052Z,21.50
2022-12-15T21:50:19.449Z,21.87
2022-12-15T21:52:47.240Z,26.10
2022-12-15T21:55:18.748Z,22.90
2022-12-15T21:57:45.483Z,26.87
2022-12-15T22:00:14.569Z,19.33
2022-12-15T22:02:41.841Z,22.23
2022-12-15T22:05:23.532Z,22.07
2022-12-15T22:07:50.986Z,19.37
2022-12-15T22:10:18.477Z,21.43
2022-12-15T22:12:53.417Z,20.93
2022-12-15T22:15:26.387Z,21.20
2022-12-15T22:17:53.063Z,19.67
2022-12-15T22:20:23.196Z,23.43
2022-12-15T22:22:50.422Z,24.70
2022-12-15T22:25:22.962Z,21.57
2022-12-15T22:27:50.105Z,18.00
2022-12-15T22:30:21.031Z,25.60
2022-12-15T22:32:47.876Z,21.20
2022-12-15T22:35:19.782Z,24.60
2022-12-15T22:37:47.293Z,22.33
2022-12-15T22:40:14.971Z,23.63
2022-12-15T22:42:49.089Z,24.70
2022-12-15T22:45:18.007Z,22.40
2022-12-15T22:47:47.139Z,19.97
2022-12-15T22:50:25.752Z,24.33
2022-12-15T22:52:52.838Z,25.87
2022-12-15T22:55:22.897Z,22.50
2022-12-15T22:58:02.987Z,21.03
2022-12-15T23:00:29.806Z,21.40
2022-12-15T23:05:29.697Z,21.90
2022-12-15T23:07:56.453Z,24.10
2022-12-15T23:10:42.016Z,21.97
2022-12-15T23:13:08.730Z,21.40
2022-12-15T23:15:54.743Z,24.70
2022-12-15T23:18:21.669Z,20.27
2022-12-15T23:20:48.403Z,18.47
2022-12-15T23:23:15.451Z,22.10
2022-12-15T23:25:42.317Z,20.13
2022-12-15T23:28:09.039Z,21.37
2022-12-15T23:30:35.970Z,19.63
2022-12-15T23:33:02.643Z,19.47
2022-12-15T23:35:29.740Z,16.20
2022-12-15T23:37:58.222Z,21.43
2022-12-15T23:40:24.861Z,22.70
2022-12-15T23:42:52.261Z,20.50
2022-12-15T23:45:19.328Z,17.43
2022-12-15T23:47:46.000Z,17.10
2022-12-15T23:50:12.689Z,15.53
2022-12-15T23:52:39.356Z,16.60
2022-12-15T23:55:09.982Z,18.43
2022-12-15T23:57:40.134Z,17.90
